Da Xian, China
Current Conditions -  °F | °C
As of 8:00 AM on Thursday 18 Dec 2014 (Local Time) from ZUCK Reporting Station
Clear Clear  
Wind Chill: 43°   Ceiling: Unl
Heat Index: 43°   Visibility: 6mi
Dew Point: 36°   Wind: 2mph
Humidity: 76%   Direction: 30°NNE
Pressure: 30.42"   Gusts: NA
Location:  31.2°N, 107.5°E
Report Text: ZUCK 180000Z 03001MPS CAVOK 06/02 Q1030 NOSIG
Loading
Personal Weather Stations






























Interactive Weather Map New forecast layout! Learn more

10-Day Weather Forecast

Advertisements
Track Severe Weather on mobile